Monday, October 15, 2018, 4:22 AM CDT
Back to Local

KC09, Morris, Morris Municipal-james R Washburn Field Airport

Location: Morris, IL, United States Lat: 41.425
Local Time: 4:22 AM CDT ( 9:22 GMT) Lon: -88.419
Time Zone: US/Central Elev: 583 ft

Show me the last for .
Show Decoded

2018-10-15 03:55 METAR KC09 150855Z AUTO 32009KT 7SM -RA OVC009 05/04 A3006 RMK AO2 60006
                 T00450040 =
2018-10-15 03:35 METAR KC09 150835Z AUTO 32007KT 10SM -RA OVC009 05/04 A3005 RMK AO2 T00450038 =
2018-10-15 03:15 METAR KC09 150815Z AUTO 32008G14KT 10SM OVC009 05/04 A3005 RMK AO2 T00470041 =
2018-10-15 02:55 METAR KC09 150755Z AUTO 33007KT 7SM -RA BKN007 OVC012 05/05 A3004 RMK AO2 P0005
                 T00520047 =
2018-10-15 02:35 METAR KC09 150735Z AUTO 32010KT 5SM -RA BKN007 OVC010 06/06 A3004 RMK AO2 P0005
                 T00610057 =
2018-10-15 02:15 METAR KC09 150715Z AUTO 31009G14KT 3SM RA OVC007 07/07 A3004 RMK AO2 P0003
                 T00730069 =
2018-10-15 01:55 METAR KC09 150655Z AUTO 31009G15KT 4SM RA BKN009 BKN021 OVC041 08/07 A3002 RMK
                 AO2 P0001 T00750070 =
2018-10-15 01:35 METAR KC09 150635Z AUTO 31008KT 5SM -DZ OVC041 08/07 A3001 RMK AO2 T00750068 =
2018-10-15 01:15 METAR KC09 150615Z AUTO 30008KT 5SM -RA OVC041 07/07 A3001 RMK AO2 T00740067 =
2018-10-15 00:55 METAR KC09 150555Z AUTO 30007KT 5SM -RA OVC041 07/07 A3000 RMK AO2 60010
                 T00730066 10108 20073 401270015 =
2018-10-15 00:35 METAR KC09 150535Z AUTO 31006KT 5SM -RA OVC041 08/07 A3001 RMK AO2 T00750068 =
2018-10-15 00:15 METAR KC09 150515Z AUTO 30005KT 4SM -RA SCT008 OVC045 08/07 A3000 RMK AO2
                 T00750071 =
2018-10-14 23:55 METAR KC09 150455Z AUTO 31003KT 4SM BR OVC045 08/07 A3000 RMK AO2 T00750071 =
2018-10-14 23:35 METAR KC09 150435Z AUTO 28003KT 3SM -DZ OVC047 08/07 A3000 RMK AO2 T00750071 =
2018-10-14 23:15 METAR KC09 150415Z AUTO 00000KT 3SM -RA OVC047 08/07 A3000 RMK AO2 T00750072 =
2018-10-14 22:55 METAR KC09 150355Z AUTO 28003KT 4SM -RA BKN047 OVC070 08/07 A3001 RMK AO2 P0004
                 T00750071 =
2018-10-14 22:35 METAR KC09 150335Z AUTO 00000KT 3SM -RA SCT060 BKN070 OVC095 07/07 A2999 RMK AO2
                 P0003 T00740070 =
2018-10-14 22:15 METAR KC09 150315Z AUTO 00000KT 3SM RA SCT047 BKN070 OVC080 08/07 A3000 RMK AO2
                 P0002 T00750071 =
2018-10-14 21:55 METAR KC09 150255Z AUTO 00000KT 4SM RA SCT041 BKN055 OVC070 08/07 A3002 RMK AO2
                 P0006 60006 T00760071 =
2018-10-14 21:35 METAR KC09 150235Z AUTO 32003KT 4SM RA SCT024 OVC041 08/07 A3003 RMK AO2 P0004
                 T00780072 =
2018-10-14 21:15 METAR KC09 150215Z AUTO 33003KT 4SM RA BKN022 BKN031 OVC039 08/07 A3002 RMK AO2
                 P0002 T00800072 =
2018-10-14 20:55 METAR KC09 150155Z AUTO 32004KT 5SM RA SCT022 OVC032 08/07 A3003 RMK AO2
                 T00810070 =
2018-10-14 20:35 METAR KC09 150135Z AUTO 33003KT 5SM DZ BKN027 OVC033 09/07 A3003 RMK AO2
                 T00860066 =
2018-10-14 20:15 METAR KC09 150115Z AUTO 32005KT 10SM -DZ OVC027 10/06 A3003 RMK AO2 T00960060 =
2018-10-14 19:55 METAR KC09 150055Z AUTO 32005KT 10SM OVC027 10/07 A3002 RMK AO2 T01040065 =
2018-10-14 19:35 METAR KC09 150035Z AUTO 32003KT 10SM OVC029 11/07 A3001 RMK AO2 T01050065 =
2018-10-14 19:15 METAR KC09 150015Z AUTO 33003KT 10SM OVC029 11/07 A3000 RMK AO2 T01060065 =
2018-10-14 18:55 METAR KC09 142355Z AUTO 32004KT 10SM OVC029 11/06 A2999 RMK AO2 T01080064 10127
                 20108 =
2018-10-14 18:35 METAR KC09 142335Z AUTO 33003KT 10SM OVC027 11/07 A2998 RMK AO2 T01100065 =
2018-10-14 18:15 METAR KC09 142315Z AUTO 34003KT 10SM OVC027 11/07 A2997 RMK AO2 T01110067 =
2018-10-14 17:55 METAR KC09 142255Z AUTO 33004KT 10SM OVC027 12/07 A2998 RMK AO2 T01160067 =
2018-10-14 17:35 METAR KC09 142235Z AUTO 31005KT 10SM OVC029 12/07 A2998 RMK AO2 T01200066 =
2018-10-14 17:15 METAR KC09 142215Z AUTO 31003KT 10SM OVC029 12/07 A2998 RMK AO2 T01220068 =
2018-10-14 16:55 METAR KC09 142155Z AUTO 27004KT 10SM OVC029 13/07 A2997 RMK AO2 T01250069 =
2018-10-14 16:35 METAR KC09 142135Z AUTO 26003KT 10SM OVC027 13/07 A2998 RMK AO2 T01250066 =
2018-10-14 16:15 METAR KC09 142115Z AUTO 00000KT 10SM OVC027 13/07 A2998 RMK AO2 T01250065 =
2018-10-14 15:55 METAR KC09 142055Z AUTO 23004KT 10SM OVC027 13/07 A2998 RMK AO2 T01250065 =
2018-10-14 15:35 METAR KC09 142035Z AUTO 00000KT 10SM OVC027 13/06 A2997 RMK AO2 T01260063 =
2018-10-14 15:15 METAR KC09 142015Z AUTO 20004KT 10SM OVC025 12/06 A2998 RMK AO2 T01230063 =
2018-10-14 14:55 METAR KC09 141955Z AUTO 22006KT 10SM OVC025 12/06 A2999 RMK AO2 T01230062 =
2018-10-14 14:35 METAR KC09 141935Z AUTO 22005KT 10SM OVC025 12/06 A2999 RMK AO2 T01200058 =
2018-10-14 14:15 METAR KC09 141915Z AUTO 21004KT 10SM OVC025 12/06 A2999 RMK AO2 T01160057 =
2018-10-14 13:55 METAR KC09 141855Z AUTO 22005KT 10SM OVC025 12/06 A3000 RMK AO2 T01170059 =
2018-10-14 13:35 METAR KC09 141835Z AUTO 21006KT 10SM OVC023 12/06 A3001 RMK AO2 T01160057 =
2018-10-14 13:15 METAR KC09 141815Z AUTO 21006KT 10SM OVC023 11/06 A3001 RMK AO2 T01120055 =
2018-10-14 12:55 METAR KC09 141755Z AUTO 19006KT 10SM OVC023 11/05 A3002 RMK AO2 T01090053 10110
                 20020 =
2018-10-14 12:35 METAR KC09 141735Z AUTO 20007KT 10SM OVC023 11/05 A3003 RMK AO2 T01060053 =
2018-10-14 12:15 METAR KC09 141715Z AUTO 19006KT 10SM OVC021 11/05 A3003 RMK AO2 T01050052 =
2018-10-14 11:55 METAR KC09 141655Z AUTO 17008KT 10SM OVC021 10/05 A3003 RMK AO2 T01040051 =
2018-10-14 11:35 METAR KC09 141635Z AUTO 17005KT 10SM OVC021 10/06 A3003 RMK AO2 T01000055 =
2018-10-14 11:15 METAR KC09 141615Z AUTO 18006KT 10SM OVC021 10/05 A3004 RMK AO2 T00970052 =
2018-10-14 10:55 METAR KC09 141555Z AUTO 18005KT 10SM OVC021 09/05 A3004 RMK AO2 T00910050 =
2018-10-14 10:35 METAR KC09 141535Z AUTO 20005KT 10SM OVC023 09/06 A3004 RMK AO2 T00880056 =
2018-10-14 10:15 METAR KC09 141515Z AUTO 16005KT 10SM OVC023 08/06 A3005 RMK AO2 T00830057 =
2018-10-14 09:55 METAR KC09 141455Z AUTO 17005KT 10SM OVC025 08/06 A3005 RMK AO2 T00770056 =
2018-10-14 09:35 METAR KC09 141435Z AUTO 18006KT 10SM OVC027 08/06 A3005 RMK AO2 T00760055 =
2018-10-14 09:15 METAR KC09 141415Z AUTO 17004KT 10SM BKN027 07/06 A3005 RMK AO2 T00710059 =
2018-10-14 08:55 METAR KC09 141355Z AUTO 00000KT 7SM SCT027 07/06 A3005 RMK AO2 T00660059 =
2018-10-14 08:35 METAR KC09 141335Z AUTO 00000KT 5SM BR CLR 05/05 A3005 RMK AO2 T00510048 =
2018-10-14 08:15 METAR KC09 141315Z AUTO 00000KT 4SM BR CLR 04/04 A3004 RMK AO2 T00420040 =
2018-10-14 07:55 METAR KC09 141255Z AUTO 00000KT 4SM BR CLR 03/03 A3004 RMK AO2 T00310029 =
2018-10-14 07:35 METAR KC09 141235Z AUTO 00000KT 3SM BR SCT027 03/02 A3003 RMK AO2 T00250023 =
2018-10-14 07:15 METAR KC09 141215Z AUTO 00000KT 2 1/2SM BR BKN027 02/02 A3003 RMK AO2 T00200017
                 =
2018-10-14 06:55 METAR KC09 141155Z AUTO 00000KT 4SM BR OVC029 02/02 A3003 RMK AO2 T00200018
                 10044 20015 =
2018-10-14 06:35 METAR KC09 141135Z AUTO 00000KT 4SM BR OVC029 02/02 A3004 RMK AO2 T00210020 =
2018-10-14 06:15 METAR KC09 141115Z AUTO 00000KT 4SM BR OVC029 02/02 A3004 RMK AO2 T00160015 =
2018-10-14 05:55 METAR KC09 141055Z AUTO 00000KT 4SM BR BKN031 02/02 A3004 RMK AO2 T00170015 =
2018-10-14 05:35 METAR KC09 141035Z AUTO 00000KT 5SM BR CLR 02/02 A3003 RMK AO2 T00210018 =
2018-10-14 05:15 METAR KC09 141015Z AUTO 00000KT 4SM BR CLR 02/02 A3003 RMK AO2 T00230021 =
2018-10-14 04:55 METAR KC09 140955Z AUTO 00000KT 4SM BR CLR 03/03 A3003 RMK AO2 T00260025 =
2018-10-14 04:35 METAR KC09 140935Z AUTO 00000KT 4SM BR CLR 02/02 A3002 RMK AO2 T00210020 =

Support USWX by starting your Amazon purchase here.